createdAt,value
2022-12-03T00:07:53.691Z,0.9
2022-12-03T00:27:58.546Z,0.9
2022-12-03T00:38:00.927Z,1
2022-12-03T00:48:03.383Z,0.9
2022-12-03T00:58:06.049Z,0.9
2022-12-03T01:08:08.415Z,0.9
2022-12-03T01:18:11.003Z,0.9
2022-12-03T01:28:13.220Z,0.9
2022-12-03T01:38:15.041Z,0.9
2022-12-03T01:58:18.988Z,0.9
2022-12-03T02:18:23.200Z,0.9
2022-12-03T02:28:24.875Z,0.8
2022-12-03T02:38:27.492Z,0.9
2022-12-03T02:58:31.444Z,0.8
2022-12-03T03:08:34.053Z,0.8
2022-12-03T03:18:36.195Z,0.7
2022-12-03T03:28:38.145Z,0.7
2022-12-03T03:38:39.830Z,0.7
2022-12-03T03:48:42.378Z,0.7
2022-12-03T03:58:44.834Z,0.6
2022-12-03T04:08:47.033Z,0.6
2022-12-03T04:18:49.313Z,0.6
2022-12-03T04:28:51.388Z,0.5
2022-12-03T04:38:53.157Z,0.5
2022-12-03T04:48:55.754Z,0.5
2022-12-03T04:58:57.837Z,0.5
2022-12-03T05:09:00.163Z,0.5
2022-12-03T05:19:02.415Z,0.5
2022-12-03T05:29:04.865Z,0.4
2022-12-03T05:39:07.283Z,0.4
2022-12-03T05:49:09.890Z,0.4
2022-12-03T05:59:11.940Z,0.3
2022-12-03T06:09:13.846Z,0.3
2022-12-03T06:19:15.745Z,0.2
2022-12-03T06:39:20.041Z,0.1
2022-12-03T06:49:22.707Z,0
2022-12-03T06:59:24.997Z,0.1
2022-12-03T07:09:26.983Z,0.1
2022-12-03T07:19:32.457Z,0.1
2022-12-03T07:29:31.599Z,0
2022-12-03T07:39:34.140Z,0.1
2022-12-03T07:49:36.173Z,0.1
2022-12-03T07:59:38.172Z,0.1
2022-12-03T08:09:40.541Z,0.2
2022-12-03T08:19:42.588Z,0.2
2022-12-03T08:29:44.891Z,0.2
2022-12-03T08:39:47.372Z,0.2
2022-12-03T08:49:49.174Z,0.2
2022-12-03T08:59:51.183Z,0.2
2022-12-03T09:09:53.545Z,0.2
2022-12-03T09:19:56.043Z,0.2
2022-12-03T09:29:57.716Z,0.2
2022-12-03T09:39:59.487Z,0.2
2022-12-03T09:50:01.957Z,0.2
2022-12-03T10:00:03.880Z,0.4
2022-12-03T10:10:06.042Z,0.3
2022-12-03T10:20:08.584Z,0.4
2022-12-03T10:40:12.184Z,0.6
2022-12-03T10:50:14.239Z,0.5
2022-12-03T11:00:16.541Z,0.5
2022-12-03T11:10:18.831Z,0.7
2022-12-03T11:20:22.699Z,0.6
2022-12-03T11:30:23.304Z,0.7
2022-12-03T11:40:25.111Z,0.8
2022-12-03T11:50:27.457Z,0.7
2022-12-03T12:00:29.791Z,0.7
2022-12-03T12:10:32.263Z,0.8
2022-12-03T12:20:34.402Z,0.8
2022-12-03T12:30:36.208Z,0.8
2022-12-03T12:40:38.446Z,0.8
2022-12-03T12:50:40.785Z,0.8
2022-12-03T13:00:43.184Z,0.9
2022-12-03T13:10:45.100Z,0.9
2022-12-03T13:30:49.558Z,0.9
2022-12-03T13:40:51.999Z,0.8
2022-12-03T13:50:53.918Z,0.9
2022-12-03T14:00:56.654Z,0.6
2022-12-03T14:11:00.271Z,0.8
2022-12-03T14:21:00.289Z,0.5
2022-12-03T14:31:02.069Z,0.7
2022-12-03T14:41:03.816Z,0.5
2022-12-03T14:51:05.729Z,0.7
2022-12-03T15:01:07.451Z,0.4
2022-12-03T15:21:11.690Z,0.4
2022-12-03T15:41:15.951Z,0.3
2022-12-03T16:11:22.472Z,0.2
2022-12-03T16:21:26.891Z,0.1
2022-12-03T16:31:26.887Z,0.2
2022-12-03T16:41:28.526Z,0.1
2022-12-03T16:51:31.126Z,0.1
2022-12-03T17:01:33.200Z,0.1
2022-12-03T17:11:35.202Z,0.1
2022-12-03T17:21:37.807Z,0
2022-12-03T17:31:42.374Z,0.1
2022-12-03T17:41:42.108Z,0
2022-12-03T18:01:46.470Z,0
2022-12-03T18:11:48.151Z,0
2022-12-03T18:21:50.447Z,0
2022-12-03T18:31:53.101Z,0
2022-12-03T18:41:55.161Z,0
2022-12-03T18:51:59.444Z,0
2022-12-03T19:01:58.623Z,0
2022-12-03T19:12:00.415Z,-0.1
2022-12-03T19:22:02.918Z,0
2022-12-03T19:32:04.921Z,0
2022-12-03T19:42:06.619Z,-0.1
2022-12-03T19:52:08.659Z,-0.1
2022-12-03T20:02:10.952Z,-0.1
2022-12-03T20:12:13.336Z,-0.1
2022-12-03T20:22:15.110Z,0
2022-12-03T20:32:17.657Z,-0.1
2022-12-03T20:42:19.974Z,-0.1
2022-12-03T20:52:22.422Z,-0.2
2022-12-03T20:52:57.841Z,-0.2
2022-12-03T21:02:32.307Z,-0.2
2022-12-03T21:12:34.076Z,-0.1
2022-12-03T21:42:40.627Z,-0.2
2022-12-03T21:52:42.762Z,-0.2
2022-12-03T22:02:44.687Z,-0.1
2022-12-03T22:12:46.454Z,-0.2
2022-12-03T22:22:48.183Z,-0.1
2022-12-03T22:32:50.400Z,-0.1
2022-12-03T22:42:52.440Z,-0.1
2022-12-03T22:52:54.607Z,-0.1
2022-12-03T23:02:57.190Z,-0.1
2022-12-03T23:12:59.283Z,-0.1
2022-12-03T23:23:01.177Z,-0.1
2022-12-03T23:33:03.748Z,-0.1
2022-12-03T23:43:05.992Z,-0.1
2022-12-03T23:53:08.252Z,-0.1
